createdAt,value
2017-12-08T00:00:28.720Z,13.00
2017-12-08T00:01:28.701Z,13.10
2017-12-08T00:02:28.681Z,15.00
2017-12-08T00:03:28.662Z,13.30
2017-12-08T00:04:28.640Z,14.10
2017-12-08T00:05:28.670Z,13.60
2017-12-08T00:06:28.601Z,14.20
2017-12-08T00:07:28.627Z,13.00
2017-12-08T00:08:28.561Z,12.40
2017-12-08T00:09:28.589Z,12.00
2017-12-08T00:10:28.512Z,13.00
2017-12-08T00:11:28.599Z,13.10
2017-12-08T00:12:28.480Z,13.40
2017-12-08T00:13:28.520Z,13.20
2017-12-08T00:14:28.432Z,13.20
2017-12-08T00:15:28.417Z,13.90
2017-12-08T00:16:28.389Z,11.70
2017-12-08T00:17:28.469Z,12.90
2017-12-08T00:18:28.352Z,13.20
2017-12-08T00:19:28.374Z,13.30
2017-12-08T00:20:28.314Z,13.30
2017-12-08T00:21:28.342Z,12.50
2017-12-08T00:22:28.270Z,13.00
2017-12-08T00:23:28.355Z,12.60
2017-12-08T00:24:28.230Z,11.90
2017-12-08T00:25:28.310Z,13.40
2017-12-08T00:26:28.189Z,11.70
2017-12-08T00:27:28.170Z,12.90
2017-12-08T00:28:28.146Z,13.00
2017-12-08T00:29:28.229Z,12.60
2017-12-08T00:30:28.105Z,13.10
2017-12-08T00:31:28.189Z,12.00
2017-12-08T00:32:28.069Z,12.70
2017-12-08T00:33:28.050Z,13.10
2017-12-08T00:34:28.022Z,12.70
2017-12-08T00:35:28.007Z,12.50
2017-12-08T00:36:27.987Z,12.90
2017-12-08T00:37:27.970Z,12.70
2017-12-08T00:38:27.940Z,12.50
2017-12-08T00:39:27.921Z,11.30
2017-12-08T00:40:27.900Z,12.90
2017-12-08T00:41:27.979Z,11.90
2017-12-08T00:42:27.860Z,13.80
2017-12-08T00:43:27.835Z,12.10
2017-12-08T00:44:27.818Z,13.50
2017-12-08T00:45:27.802Z,13.90
2017-12-08T00:46:27.772Z,13.40
2017-12-08T00:47:27.756Z,13.00
2017-12-08T00:48:27.750Z,13.80
2017-12-08T00:49:27.713Z,11.80
2017-12-08T00:50:27.694Z,11.70
2017-12-08T00:51:27.735Z,12.60
2017-12-08T00:52:27.659Z,13.00
2017-12-08T00:53:27.634Z,12.70
2017-12-08T00:54:27.611Z,11.60
2017-12-08T00:55:27.587Z,10.40
2017-12-08T00:56:27.571Z,11.50
2017-12-08T00:57:27.550Z,12.00
2017-12-08T00:58:27.528Z,12.00
2017-12-08T00:59:27.506Z,12.50
2017-12-08T01:00:27.484Z,12.40
2017-12-08T01:01:27.465Z,12.30
2017-12-08T01:02:27.446Z,11.80
2017-12-08T01:03:27.441Z,11.70
2017-12-08T01:04:27.405Z,12.70
2017-12-08T01:05:27.382Z,12.30
2017-12-08T01:06:27.362Z,11.40
2017-12-08T01:07:27.344Z,13.30
2017-12-08T01:08:27.321Z,12.90
2017-12-08T01:09:27.310Z,11.50
2017-12-08T01:10:27.280Z,11.20
2017-12-08T01:11:27.260Z,12.20
2017-12-08T01:12:27.238Z,12.10
2017-12-08T01:13:27.218Z,11.50
2017-12-08T01:14:27.200Z,11.00
2017-12-08T01:15:27.179Z,10.30
2017-12-08T01:16:27.158Z,11.20
2017-12-08T01:17:27.141Z,11.30
2017-12-08T01:18:27.119Z,11.20
2017-12-08T01:19:27.091Z,11.20
2017-12-08T01:20:27.080Z,10.80
2017-12-08T01:21:27.059Z,10.80
2017-12-08T01:22:27.027Z,10.70
2017-12-08T01:23:27.009Z,11.20
2017-12-08T01:24:26.991Z,10.80
2017-12-08T01:25:26.967Z,12.30
2017-12-08T01:26:26.949Z,10.90
2017-12-08T01:27:26.930Z,10.80
2017-12-08T01:28:26.966Z,11.80
2017-12-08T01:29:26.891Z,12.50
2017-12-08T01:30:26.869Z,10.70
2017-12-08T01:31:26.844Z,11.50
2017-12-08T01:32:26.820Z,11.10
2017-12-08T01:33:26.800Z,10.90
2017-12-08T01:34:26.781Z,10.50
2017-12-08T01:35:26.758Z,11.60
2017-12-08T01:36:26.738Z,9.70
2017-12-08T01:37:26.714Z,10.80
2017-12-08T01:38:26.697Z,9.30
2017-12-08T01:39:26.679Z,9.50
2017-12-08T01:40:26.655Z,11.40
2017-12-08T01:41:26.629Z,10.10
2017-12-08T01:42:26.612Z,10.80
2017-12-08T01:43:26.590Z,10.10
2017-12-08T01:44:26.603Z,10.10
2017-12-08T01:45:26.550Z,10.50
2017-12-08T01:46:26.523Z,9.90
2017-12-08T01:47:26.511Z,10.00
2017-12-08T01:48:26.497Z,10.40
2017-12-08T01:49:26.469Z,10.80
2017-12-08T01:50:26.447Z,10.20
2017-12-08T01:51:26.421Z,10.50
2017-12-08T01:52:26.403Z,10.00
2017-12-08T01:53:26.392Z,9.20
2017-12-08T01:54:26.356Z,10.10
2017-12-08T01:55:26.342Z,10.00
2017-12-08T01:56:26.323Z,9.50
2017-12-08T01:57:26.294Z,10.20
2017-12-08T01:58:26.282Z,9.80
2017-12-08T01:59:26.262Z,10.00
2017-12-08T02:00:26.238Z,9.50
2017-12-08T02:01:26.212Z,9.50
2017-12-08T02:02:26.197Z,9.10
2017-12-08T02:03:26.174Z,9.60
2017-12-08T02:04:26.144Z,9.00
2017-12-08T02:05:26.123Z,9.10
2017-12-08T02:06:26.102Z,8.50
2017-12-08T02:07:26.080Z,9.20
2017-12-08T02:08:26.064Z,9.20
2017-12-08T02:09:26.043Z,9.30
2017-12-08T02:10:26.019Z,8.40
2017-12-08T02:11:26.000Z,9.00
2017-12-08T02:12:25.980Z,9.50
2017-12-08T02:13:25.958Z,9.60
2017-12-08T02:14:25.940Z,8.80
2017-12-08T02:15:25.919Z,9.10
2017-12-08T02:16:25.903Z,9.00
2017-12-08T02:17:25.872Z,9.00
2017-12-08T02:18:25.853Z,8.50
2017-12-08T02:19:25.830Z,8.00
2017-12-08T02:20:25.813Z,8.90
2017-12-08T02:21:25.791Z,8.70
2017-12-08T02:22:25.768Z,8.20
2017-12-08T02:23:25.747Z,8.60
2017-12-08T02:24:25.731Z,8.60
2017-12-08T02:25:25.705Z,8.60
2017-12-08T02:26:25.681Z,8.20
2017-12-08T02:27:25.662Z,8.70
2017-12-08T02:28:25.640Z,7.50
2017-12-08T02:29:25.621Z,7.30
2017-12-08T02:30:25.601Z,8.20
2017-12-08T02:31:25.577Z,8.40
2017-12-08T02:32:25.561Z,8.70
2017-12-08T02:33:25.530Z,8.60
2017-12-08T02:34:25.511Z,8.00
2017-12-08T02:35:25.496Z,8.50
2017-12-08T02:36:25.471Z,8.90
2017-12-08T02:37:25.450Z,8.70
2017-12-08T02:38:25.431Z,8.50
2017-12-08T02:39:25.411Z,8.00
2017-12-08T02:40:25.381Z,7.20
2017-12-08T02:41:25.361Z,8.40
2017-12-08T02:42:25.338Z,8.60
2017-12-08T02:43:25.319Z,7.20
2017-12-08T02:44:25.296Z,6.90
2017-12-08T02:45:25.281Z,8.10
2017-12-08T02:46:25.262Z,7.80
2017-12-08T02:47:25.235Z,8.80
2017-12-08T02:48:25.212Z,7.60
2017-12-08T02:49:25.189Z,7.70
2017-12-08T02:50:25.167Z,7.20
2017-12-08T02:51:25.148Z,6.50
2017-12-08T02:52:25.132Z,7.20
2017-12-08T02:53:25.106Z,7.10
2017-12-08T02:54:25.082Z,8.00
2017-12-08T02:55:25.061Z,7.20
2017-12-08T02:56:25.038Z,7.10
2017-12-08T02:57:25.021Z,7.50
2017-12-08T02:58:24.992Z,6.30
2017-12-08T02:59:24.980Z,6.60
2017-12-08T03:00:24.954Z,6.40
2017-12-08T03:01:24.933Z,6.20
2017-12-08T03:02:24.910Z,6.80
2017-12-08T03:03:24.890Z,6.20
2017-12-08T03:04:24.866Z,6.40
2017-12-08T03:05:24.850Z,6.80
2017-12-08T03:06:24.821Z,5.80
2017-12-08T03:07:24.810Z,6.90
2017-12-08T03:08:24.779Z,7.10
2017-12-08T03:09:24.761Z,7.60
2017-12-08T03:10:24.740Z,6.80
2017-12-08T03:11:24.717Z,6.00
2017-12-08T03:12:24.692Z,6.40
2017-12-08T03:13:24.672Z,6.70
2017-12-08T03:14:24.650Z,6.20
2017-12-08T03:15:24.632Z,6.20
2017-12-08T03:16:24.605Z,6.50
2017-12-08T03:17:24.584Z,5.80
2017-12-08T03:18:24.564Z,6.10
2017-12-08T03:19:24.541Z,6.50
2017-12-08T03:20:24.521Z,6.00
2017-12-08T03:21:24.501Z,5.70
2017-12-08T03:22:24.481Z,6.60
2017-12-08T03:23:24.459Z,6.70
2017-12-08T03:24:24.444Z,6.50
2017-12-08T03:25:24.412Z,7.20
2017-12-08T03:26:24.390Z,6.00
2017-12-08T03:27:24.369Z,6.40
2017-12-08T03:28:24.348Z,7.20
2017-12-08T03:29:24.324Z,7.90
2017-12-08T03:30:24.311Z,7.20
2017-12-08T03:31:24.294Z,7.50
2017-12-08T03:32:24.271Z,7.40
2017-12-08T03:33:24.249Z,7.80
2017-12-08T03:34:24.219Z,7.20
2017-12-08T03:35:24.195Z,7.70
2017-12-08T03:36:24.178Z,7.40
2017-12-08T03:37:24.155Z,7.50
2017-12-08T03:38:24.132Z,7.90
2017-12-08T03:39:24.110Z,7.90
2017-12-08T03:40:24.092Z,8.50
2017-12-08T03:41:24.072Z,8.60
2017-12-08T03:42:24.048Z,8.30
2017-12-08T03:43:24.024Z,8.30
2017-12-08T03:44:24.012Z,8.90
2017-12-08T03:45:23.984Z,9.60
2017-12-08T03:46:23.962Z,8.70
2017-12-08T03:47:23.943Z,9.10
2017-12-08T03:48:23.918Z,8.60
2017-12-08T03:49:23.897Z,9.20
2017-12-08T03:50:23.876Z,8.50
2017-12-08T03:51:23.862Z,7.80
2017-12-08T03:52:23.833Z,7.80
2017-12-08T03:53:23.814Z,8.20
2017-12-08T03:54:23.789Z,9.10
2017-12-08T03:55:23.770Z,9.30
2017-12-08T03:56:23.750Z,9.30
2017-12-08T03:57:23.732Z,9.40
2017-12-08T03:58:23.703Z,9.10
2017-12-08T03:59:23.681Z,8.80
2017-12-08T04:00:23.660Z,8.80
2017-12-08T04:01:23.640Z,8.50
2017-12-08T04:02:23.619Z,9.20
2017-12-08T04:03:23.600Z,9.70
2017-12-08T04:04:23.581Z,9.00
2017-12-08T04:05:23.560Z,8.30
2017-12-08T04:06:23.536Z,7.70
2017-12-08T04:07:23.510Z,9.20
2017-12-08T04:08:23.490Z,7.90
2017-12-08T04:09:23.471Z,7.10
2017-12-08T04:10:23.502Z,8.30
2017-12-08T04:11:23.426Z,7.00
2017-12-08T04:12:23.456Z,6.90
2017-12-08T04:13:23.380Z,8.30
2017-12-08T04:14:23.462Z,7.20
2017-12-08T04:15:23.342Z,7.10
2017-12-08T04:16:23.321Z,8.40
2017-12-08T04:17:23.294Z,8.20
2017-12-08T04:18:23.277Z,7.90
2017-12-08T04:19:23.249Z,7.00
2017-12-08T04:20:23.330Z,7.50
2017-12-08T04:21:23.210Z,7.30
2017-12-08T04:22:23.291Z,7.60
2017-12-08T04:23:23.168Z,7.90
2017-12-08T04:24:23.140Z,7.50
2017-12-08T04:25:23.173Z,6.60
2017-12-08T04:26:23.099Z,8.30
2017-12-08T04:27:23.073Z,7.50
2017-12-08T04:28:23.054Z,6.50
2017-12-08T04:29:23.039Z,7.50
2017-12-08T04:30:23.080Z,8.30
2017-12-08T04:31:22.990Z,7.10
2017-12-08T04:32:22.972Z,6.10
2017-12-08T04:33:22.952Z,7.10
2017-12-08T04:34:22.929Z,6.90
2017-12-08T04:35:22.910Z,6.60
2017-12-08T04:36:22.887Z,6.60
2017-12-08T04:37:22.863Z,6.70
2017-12-08T04:38:22.840Z,7.90
2017-12-08T04:39:22.818Z,7.20
2017-12-08T04:40:22.795Z,7.00
2017-12-08T04:41:22.771Z,7.00
2017-12-08T04:42:22.855Z,6.90
2017-12-08T04:43:22.728Z,6.00
2017-12-08T04:44:22.709Z,5.20
2017-12-08T04:45:22.745Z,6.80
2017-12-08T04:46:22.664Z,6.90
2017-12-08T04:47:22.639Z,5.90
2017-12-08T04:48:22.624Z,6.80
2017-12-08T04:49:22.600Z,6.50
2017-12-08T04:50:22.579Z,5.80
2017-12-08T04:51:22.559Z,6.30
2017-12-08T04:52:22.541Z,6.30
2017-12-08T04:53:22.508Z,5.90
2017-12-08T04:54:22.500Z,5.70
2017-12-08T04:55:22.469Z,6.10
2017-12-08T04:56:22.443Z,5.40
2017-12-08T04:57:22.429Z,5.70
2017-12-08T04:58:22.403Z,5.30
2017-12-08T04:59:22.381Z,6.20
2017-12-08T05:00:22.361Z,5.70
2017-12-08T05:01:22.337Z,4.70
2017-12-08T05:02:22.317Z,4.30
2017-12-08T05:03:22.292Z,4.70
2017-12-08T05:04:22.278Z,4.90
2017-12-08T05:05:22.248Z,5.50
2017-12-08T05:06:22.229Z,5.50
2017-12-08T05:07:22.209Z,4.90
2017-12-08T05:08:22.188Z,4.60
2017-12-08T05:09:22.168Z,4.90
2017-12-08T05:10:22.139Z,4.40
2017-12-08T05:11:22.119Z,4.00
2017-12-08T05:12:22.103Z,4.10
2017-12-08T05:13:22.078Z,3.20
2017-12-08T05:14:22.061Z,4.30
2017-12-08T05:15:22.027Z,4.40
2017-12-08T05:16:22.008Z,4.30
2017-12-08T05:17:21.986Z,4.00
2017-12-08T05:18:21.969Z,4.00
2017-12-08T05:19:21.949Z,4.20
2017-12-08T05:20:21.920Z,4.00
2017-12-08T05:21:21.899Z,4.50
2017-12-08T05:22:21.876Z,4.40
2017-12-08T05:23:21.860Z,4.30
2017-12-08T05:24:21.840Z,3.80
2017-12-08T05:25:21.809Z,3.80
2017-12-08T05:26:21.789Z,4.40
2017-12-08T05:27:21.766Z,3.90
2017-12-08T05:28:21.747Z,4.10
2017-12-08T05:29:21.729Z,4.20
2017-12-08T05:30:21.699Z,3.90
2017-12-08T05:31:21.680Z,4.10
2017-12-08T05:32:21.662Z,4.00
2017-12-08T05:33:21.641Z,4.10
2017-12-08T05:34:21.615Z,3.30
2017-12-08T05:35:21.591Z,3.90
2017-12-08T05:36:21.577Z,3.70
2017-12-08T05:37:21.551Z,4.00
2017-12-08T05:38:21.527Z,3.50
2017-12-08T05:39:21.556Z,3.70
2017-12-08T05:40:21.484Z,4.50
2017-12-08T05:41:21.462Z,3.70
2017-12-08T05:42:21.444Z,3.80
2017-12-08T05:43:21.420Z,4.00
2017-12-08T05:44:21.401Z,4.20
2017-12-08T05:45:21.369Z,3.80
2017-12-08T05:46:21.353Z,3.50
2017-12-08T05:47:21.328Z,3.90
2017-12-08T05:48:21.303Z,4.30
2017-12-08T05:49:21.290Z,4.40
2017-12-08T05:50:21.259Z,4.20
2017-12-08T05:51:21.243Z,3.70
2017-12-08T05:52:21.220Z,4.00
2017-12-08T05:53:21.194Z,4.10
2017-12-08T05:54:21.169Z,3.70
2017-12-08T05:55:21.148Z,4.20
2017-12-08T05:56:21.129Z,4.80
2017-12-08T05:57:21.110Z,3.60
2017-12-08T05:58:21.088Z,3.80
2017-12-08T05:59:21.072Z,4.60
2017-12-08T06:00:21.043Z,4.30
2017-12-08T06:01:21.015Z,4.40
2017-12-08T06:02:20.994Z,4.40
2017-12-08T06:03:20.970Z,4.50
2017-12-08T06:04:20.951Z,3.70
2017-12-08T06:05:20.929Z,4.20
2017-12-08T06:06:20.910Z,4.60
2017-12-08T06:07:20.883Z,3.90
2017-12-08T06:08:20.861Z,3.60
2017-12-08T06:09:20.839Z,3.90
2017-12-08T06:10:20.814Z,3.80
2017-12-08T06:11:20.799Z,3.60
2017-12-08T06:12:20.768Z,3.80
2017-12-08T06:13:20.747Z,4.70
2017-12-08T06:14:20.728Z,4.10
2017-12-08T06:15:20.706Z,3.90
2017-12-08T06:16:20.683Z,4.50
2017-12-08T06:17:20.659Z,3.30
2017-12-08T06:18:20.640Z,3.80
2017-12-08T06:19:20.622Z,3.70
2017-12-08T06:20:20.600Z,4.10
2017-12-08T06:21:20.574Z,3.50
2017-12-08T06:22:20.549Z,4.50
2017-12-08T06:23:20.530Z,3.60
2017-12-08T06:24:20.508Z,4.20
2017-12-08T06:25:20.487Z,4.20
2017-12-08T06:26:20.459Z,3.60
2017-12-08T06:27:20.450Z,4.50
2017-12-08T06:28:20.416Z,4.30
2017-12-08T06:29:20.400Z,4.50
2017-12-08T06:30:20.370Z,4.10
2017-12-08T06:31:20.351Z,3.60
2017-12-08T06:32:20.329Z,4.00
2017-12-08T06:33:20.308Z,4.20
2017-12-08T06:34:20.290Z,4.40
2017-12-08T06:35:20.264Z,3.90
2017-12-08T06:36:20.233Z,4.20
2017-12-08T06:37:20.222Z,4.60
2017-12-08T06:38:20.191Z,3.60
2017-12-08T06:39:20.171Z,4.00
2017-12-08T06:40:20.143Z,4.30
2017-12-08T06:41:20.128Z,4.10
2017-12-08T06:42:20.099Z,3.80
2017-12-08T06:43:20.076Z,3.30
2017-12-08T06:44:20.062Z,4.10
2017-12-08T06:45:20.033Z,4.30
2017-12-08T06:46:20.007Z,4.30
2017-12-08T06:47:20.037Z,3.70
2017-12-08T06:48:19.963Z,4.60
2017-12-08T06:49:19.949Z,3.80
2017-12-08T06:50:19.917Z,3.10
2017-12-08T06:51:19.998Z,3.80
2017-12-08T06:52:19.879Z,3.60
2017-12-08T06:53:19.950Z,3.60
2017-12-08T06:54:19.828Z,4.20
2017-12-08T06:55:19.911Z,4.20
2017-12-08T06:56:19.783Z,4.00
2017-12-08T06:57:19.911Z,3.50
2017-12-08T06:58:19.740Z,3.40
2017-12-08T06:59:19.765Z,4.00
2017-12-08T07:00:19.693Z,3.10
2017-12-08T07:01:19.672Z,4.10
2017-12-08T07:02:19.649Z,3.80
2017-12-08T07:03:19.626Z,3.90
2017-12-08T07:04:19.600Z,3.80
2017-12-08T07:05:19.580Z,4.00
2017-12-08T07:06:19.554Z,3.20
2017-12-08T07:07:19.682Z,3.50
2017-12-08T07:08:19.511Z,4.20
2017-12-08T07:09:19.546Z,4.20
2017-12-08T07:10:19.469Z,3.00
2017-12-08T07:11:19.445Z,3.60
2017-12-08T07:12:19.417Z,3.40
2017-12-08T07:13:19.491Z,4.30
2017-12-08T07:14:19.371Z,3.90
2017-12-08T07:15:19.356Z,3.70
2017-12-08T07:16:19.327Z,3.80
2017-12-08T07:17:19.311Z,4.20
2017-12-08T07:18:19.301Z,3.80
2017-12-08T07:19:19.264Z,4.50
2017-12-08T07:20:19.241Z,4.90
2017-12-08T07:21:19.223Z,3.90
2017-12-08T07:22:19.191Z,5.20
2017-12-08T07:23:19.279Z,4.20
2017-12-08T07:24:19.145Z,3.70
2017-12-08T07:25:19.140Z,4.00
2017-12-08T07:26:19.102Z,4.00
2017-12-08T07:27:19.081Z,3.70
2017-12-08T07:28:19.064Z,4.20
2017-12-08T07:29:19.044Z,4.10
2017-12-08T07:30:19.025Z,3.90
2017-12-08T07:31:18.988Z,4.10
2017-12-08T07:32:18.964Z,4.00
2017-12-08T07:33:18.942Z,4.50
2017-12-08T07:34:18.931Z,3.20
2017-12-08T07:35:18.892Z,4.00
2017-12-08T07:36:18.877Z,4.10
2017-12-08T07:37:18.849Z,4.70
2017-12-08T07:38:18.830Z,3.90
2017-12-08T07:39:18.806Z,4.00
2017-12-08T07:40:18.783Z,4.00
2017-12-08T07:41:18.760Z,4.50
2017-12-08T07:42:18.740Z,4.30
2017-12-08T07:43:18.713Z,4.40
2017-12-08T07:44:18.694Z,4.50
2017-12-08T07:45:18.672Z,3.70
2017-12-08T07:46:18.648Z,4.30
2017-12-08T07:47:18.627Z,4.50
2017-12-08T07:48:18.604Z,3.90
2017-12-08T07:49:18.580Z,4.70
2017-12-08T07:50:18.554Z,4.60
2017-12-08T07:51:18.530Z,5.10
2017-12-08T07:52:18.510Z,4.60
2017-12-08T07:53:18.488Z,4.30
2017-12-08T07:54:18.464Z,4.30
2017-12-08T07:55:18.446Z,4.60
2017-12-08T07:56:18.420Z,4.30
2017-12-08T07:57:18.399Z,4.30
2017-12-08T07:58:18.379Z,4.50
2017-12-08T07:59:18.354Z,4.80
2017-12-08T08:00:18.329Z,5.30
2017-12-08T08:01:18.317Z,4.80
2017-12-08T08:02:18.290Z,4.50
2017-12-08T08:03:18.273Z,4.50
2017-12-08T08:04:18.285Z,4.60
2017-12-08T08:05:18.220Z,4.60
2017-12-08T08:06:18.201Z,4.20
2017-12-08T08:07:18.180Z,4.20
2017-12-08T08:08:18.156Z,4.80
2017-12-08T08:09:18.132Z,5.10
2017-12-08T08:10:18.109Z,4.50
2017-12-08T08:11:18.097Z,4.30
2017-12-08T08:12:18.072Z,4.10
2017-12-08T08:13:18.044Z,4.40
2017-12-08T08:14:18.030Z,3.80
2017-12-08T08:15:18.000Z,3.70
2017-12-08T08:16:17.982Z,4.00
2017-12-08T08:17:17.960Z,4.20
2017-12-08T08:18:17.930Z,4.20
2017-12-08T08:19:17.917Z,4.30
2017-12-08T08:20:17.892Z,4.30
2017-12-08T08:21:17.912Z,3.50
2017-12-08T08:22:17.849Z,3.10
2017-12-08T08:23:17.827Z,4.00
2017-12-08T08:24:17.799Z,3.60
2017-12-08T08:25:17.781Z,3.60
2017-12-08T08:26:17.758Z,3.70
2017-12-08T08:27:17.734Z,3.70
2017-12-08T08:28:17.719Z,3.60
2017-12-08T08:29:17.691Z,4.10
2017-12-08T08:30:17.667Z,4.00
2017-12-08T08:31:17.657Z,4.10
2017-12-08T08:32:17.631Z,3.70
2017-12-08T08:33:17.618Z,4.10
2017-12-08T08:34:17.582Z,3.70
2017-12-08T08:35:17.562Z,4.10
2017-12-08T08:36:17.547Z,3.70
2017-12-08T08:37:17.525Z,3.90
2017-12-08T08:38:17.505Z,3.90
2017-12-08T08:39:17.490Z,4.40
2017-12-08T08:40:17.469Z,3.40
2017-12-08T08:41:17.448Z,4.00
2017-12-08T08:42:17.426Z,3.90
2017-12-08T08:43:17.411Z,3.90
2017-12-08T08:44:17.389Z,4.20
2017-12-08T08:45:17.372Z,4.70
2017-12-08T08:46:17.349Z,4.90
2017-12-08T08:47:17.331Z,4.50
2017-12-08T08:48:17.312Z,4.40
2017-12-08T08:49:17.289Z,3.90
2017-12-08T08:50:17.265Z,4.30
2017-12-08T08:51:17.302Z,4.50
2017-12-08T08:52:17.227Z,4.20
2017-12-08T08:53:17.213Z,3.90
2017-12-08T08:54:17.182Z,3.60
2017-12-08T08:55:17.163Z,4.40
2017-12-08T08:56:17.145Z,4.10
2017-12-08T08:57:17.120Z,4.30
2017-12-08T08:58:17.102Z,4.30
2017-12-08T08:59:17.081Z,4.80
2017-12-08T09:00:17.059Z,5.00
2017-12-08T09:01:17.038Z,4.70
2017-12-08T09:02:17.046Z,5.00
2017-12-08T09:03:17.030Z,4.10
2017-12-08T09:04:16.984Z,4.10
2017-12-08T09:05:16.953Z,4.80
2017-12-08T09:06:16.930Z,4.70
2017-12-08T09:07:16.911Z,4.00
2017-12-08T09:08:16.893Z,4.00
2017-12-08T09:09:16.871Z,4.70
2017-12-08T09:10:16.851Z,4.50
2017-12-08T09:11:16.829Z,4.60
2017-12-08T09:12:16.801Z,4.10
2017-12-08T09:13:16.778Z,4.80
2017-12-08T09:14:16.757Z,4.70
2017-12-08T09:15:16.735Z,4.30
2017-12-08T09:16:16.712Z,4.90
2017-12-08T09:17:16.697Z,4.20
2017-12-08T09:18:16.723Z,4.60
2017-12-08T09:19:16.652Z,4.60
2017-12-08T09:20:16.622Z,4.10
2017-12-08T09:21:16.602Z,4.80
2017-12-08T09:22:16.628Z,4.90
2017-12-08T09:23:16.566Z,4.50
2017-12-08T09:24:16.534Z,5.00
2017-12-08T09:25:16.510Z,5.00
2017-12-08T09:26:16.506Z,5.00
2017-12-08T09:27:16.480Z,5.00
2017-12-08T09:28:16.545Z,5.50
2017-12-08T09:29:16.420Z,4.70
2017-12-08T09:30:16.398Z,4.90
2017-12-08T09:31:16.377Z,5.20
2017-12-08T09:32:16.411Z,5.30
2017-12-08T09:33:16.338Z,5.30
2017-12-08T09:34:16.403Z,4.60
2017-12-08T09:35:16.286Z,4.20
2017-12-08T09:36:16.271Z,5.10
2017-12-08T09:37:16.247Z,4.70
2017-12-08T09:38:16.247Z,5.10
2017-12-08T09:39:16.203Z,5.50
2017-12-08T09:40:16.231Z,5.50
2017-12-08T09:41:16.154Z,4.20
2017-12-08T09:42:16.132Z,5.70
2017-12-08T09:43:16.110Z,5.60
2017-12-08T09:44:16.141Z,5.80
2017-12-08T09:45:16.061Z,5.10
2017-12-08T09:46:16.192Z,6.00
2017-12-08T09:47:16.028Z,5.00
2017-12-08T09:48:16.054Z,5.40
2017-12-08T09:49:15.974Z,5.40
2017-12-08T09:50:15.950Z,4.80
2017-12-08T09:51:15.930Z,5.10
2017-12-08T09:52:15.908Z,4.60
2017-12-08T09:53:15.890Z,4.90
2017-12-08T09:54:15.860Z,4.70
2017-12-08T09:55:15.838Z,4.50
2017-12-08T09:56:15.817Z,5.60
2017-12-08T09:57:15.790Z,5.00
2017-12-08T09:58:15.772Z,4.60
2017-12-08T09:59:15.752Z,4.60
2017-12-08T10:00:15.731Z,4.60
2017-12-08T10:01:15.703Z,5.40
2017-12-08T10:02:15.679Z,4.50
2017-12-08T10:03:15.655Z,5.10
2017-12-08T10:04:15.636Z,4.90
2017-12-08T10:05:15.608Z,4.60
2017-12-08T10:06:15.595Z,5.10
2017-12-08T10:07:15.573Z,5.00
2017-12-08T10:08:15.554Z,4.40
2017-12-08T10:09:15.529Z,4.40
2017-12-08T10:10:15.502Z,4.70
2017-12-08T10:11:15.474Z,4.30
2017-12-08T10:12:15.451Z,4.90
2017-12-08T10:13:15.425Z,3.90
2017-12-08T10:14:15.412Z,4.10
2017-12-08T10:15:15.382Z,4.20
2017-12-08T10:16:15.364Z,4.70
2017-12-08T10:17:15.342Z,4.50
2017-12-08T10:18:15.320Z,5.50
2017-12-08T10:19:15.300Z,5.70
2017-12-08T10:20:15.267Z,4.70
2017-12-08T10:21:15.250Z,5.10
2017-12-08T10:22:15.219Z,5.30
2017-12-08T10:23:15.205Z,5.70
2017-12-08T10:24:15.180Z,5.10
2017-12-08T10:25:15.155Z,5.30
2017-12-08T10:26:15.128Z,4.60
2017-12-08T10:27:15.105Z,5.30
2017-12-08T10:28:15.099Z,5.60
2017-12-08T10:29:15.060Z,5.70
2017-12-08T10:30:15.039Z,5.90
2017-12-08T10:31:15.016Z,5.30
2017-12-08T10:32:14.991Z,5.90
2017-12-08T10:33:14.975Z,6.10
2017-12-08T10:34:14.946Z,6.20
2017-12-08T10:35:14.929Z,6.50
2017-12-08T10:36:14.906Z,5.80
2017-12-08T10:37:14.877Z,6.90
2017-12-08T10:38:14.852Z,7.00
2017-12-08T10:39:14.834Z,6.90
2017-12-08T10:40:14.817Z,6.70
2017-12-08T10:41:14.799Z,7.70
2017-12-08T10:42:14.772Z,8.30
2017-12-08T10:43:14.739Z,7.00
2017-12-08T10:44:14.747Z,7.90
2017-12-08T10:45:14.695Z,8.60
2017-12-08T10:46:14.676Z,8.10
2017-12-08T10:47:14.650Z,9.20
2017-12-08T10:48:14.623Z,8.00
2017-12-08T10:49:14.603Z,8.50
2017-12-08T10:50:14.578Z,7.90
2017-12-08T10:51:14.557Z,8.30
2017-12-08T10:52:14.532Z,8.60
2017-12-08T10:53:14.518Z,8.60
2017-12-08T10:54:14.493Z,8.80
2017-12-08T10:55:14.465Z,8.90
2017-12-08T10:56:14.442Z,9.40
2017-12-08T10:57:14.422Z,8.00
2017-12-08T10:58:14.401Z,9.80
2017-12-08T10:59:14.377Z,8.80
2017-12-08T11:00:14.352Z,9.10
2017-12-08T11:01:14.329Z,7.90
2017-12-08T11:02:14.313Z,9.40
2017-12-08T11:03:14.285Z,8.90
2017-12-08T11:04:14.263Z,9.20
2017-12-08T11:05:14.241Z,9.80
2017-12-08T11:06:14.220Z,9.60
2017-12-08T11:07:14.192Z,9.40
2017-12-08T11:08:14.170Z,9.70
2017-12-08T11:09:14.148Z,6.60
2017-12-08T11:10:14.121Z,9.10
2017-12-08T11:11:14.099Z,9.50
2017-12-08T11:12:14.080Z,8.40
2017-12-08T11:13:14.062Z,8.20
2017-12-08T11:14:14.030Z,8.70
2017-12-08T11:15:14.010Z,9.00
2017-12-08T11:16:13.988Z,9.70
2017-12-08T11:17:13.960Z,8.70
2017-12-08T11:18:13.944Z,8.80
2017-12-08T11:19:13.919Z,9.70
2017-12-08T11:20:13.902Z,8.90
2017-12-08T11:21:13.873Z,9.30
2017-12-08T11:22:13.951Z,9.60
2017-12-08T11:23:13.830Z,8.40
2017-12-08T11:24:13.807Z,8.90
2017-12-08T11:25:13.781Z,8.90
2017-12-08T11:26:13.760Z,8.70
2017-12-08T11:27:13.738Z,7.80
2017-12-08T11:28:13.717Z,8.80
2017-12-08T11:29:13.688Z,8.40
2017-12-08T11:30:13.680Z,9.00
2017-12-08T11:31:13.648Z,8.90
2017-12-08T11:32:13.620Z,9.00
2017-12-08T11:33:13.599Z,11.60
2017-12-08T11:34:13.581Z,18.00
2017-12-08T11:35:13.552Z,28.70
2017-12-08T11:36:13.532Z,13.10
2017-12-08T11:37:13.514Z,17.50
2017-12-08T11:38:13.490Z,25.00
2017-12-08T11:39:13.471Z,13.20
2017-12-08T11:40:13.446Z,11.00
2017-12-08T11:41:13.420Z,12.20
2017-12-08T11:42:13.392Z,15.30
2017-12-08T11:43:13.372Z,33.40
2017-12-08T11:44:13.350Z,16.10
2017-12-08T11:45:13.331Z,23.00
2017-12-08T11:46:13.321Z,17.10
2017-12-08T11:47:13.332Z,6.80
2017-12-08T11:48:13.262Z,6.50
2017-12-08T11:49:13.259Z,6.50
2017-12-08T11:50:13.222Z,6.30
2017-12-08T11:51:13.247Z,7.10
2017-12-08T11:52:13.178Z,7.50
2017-12-08T11:53:13.251Z,7.00
2017-12-08T11:54:13.126Z,6.80
2017-12-08T11:55:13.112Z,6.70
2017-12-08T11:56:13.094Z,7.70
2017-12-08T11:57:13.166Z,7.60
2017-12-08T11:58:13.044Z,6.50
2017-12-08T11:59:13.042Z,6.30
2017-12-08T12:00:12.996Z,6.20
2017-12-08T12:01:13.036Z,6.50
2017-12-08T12:02:12.947Z,6.50
2017-12-08T12:03:13.084Z,6.10
2017-12-08T12:04:12.968Z,6.50
2017-12-08T12:05:12.913Z,6.80
2017-12-08T12:06:12.857Z,7.10
2017-12-08T12:07:12.843Z,7.20
2017-12-08T12:08:12.827Z,7.00
2017-12-08T12:09:12.951Z,7.00
2017-12-08T12:10:12.770Z,6.30
2017-12-08T12:11:12.760Z,6.50
2017-12-08T12:12:12.729Z,5.70
2017-12-08T12:13:12.711Z,6.30
2017-12-08T12:14:12.691Z,6.00
2017-12-08T12:15:12.672Z,6.20
2017-12-08T12:16:12.644Z,6.20
2017-12-08T12:17:12.623Z,5.60
2017-12-08T12:18:12.595Z,5.80
2017-12-08T12:19:12.578Z,6.00
2017-12-08T12:20:12.562Z,5.40
2017-12-08T12:21:12.532Z,5.40
2017-12-08T12:22:12.506Z,5.30
2017-12-08T12:23:12.486Z,5.40
2017-12-08T12:24:12.462Z,5.10
2017-12-08T12:25:12.447Z,5.70
2017-12-08T12:26:12.423Z,5.10
2017-12-08T12:27:12.407Z,5.40
2017-12-08T12:28:12.374Z,5.40
2017-12-08T12:29:12.359Z,5.20
2017-12-08T12:30:12.330Z,5.00
2017-12-08T12:31:12.315Z,5.20
2017-12-08T12:32:12.298Z,5.40
2017-12-08T12:33:12.270Z,5.00
2017-12-08T12:34:12.246Z,5.20
2017-12-08T12:35:12.221Z,4.70
2017-12-08T12:36:12.200Z,5.00
2017-12-08T12:37:12.181Z,4.80
2017-12-08T12:38:12.158Z,5.10
2017-12-08T12:39:12.136Z,5.00
2017-12-08T12:40:12.125Z,4.50
2017-12-08T12:41:12.092Z,4.50
2017-12-08T12:42:12.071Z,4.40
2017-12-08T12:43:12.052Z,4.80
2017-12-08T12:44:12.029Z,5.10
2017-12-08T12:45:12.004Z,4.80
2017-12-08T12:46:11.978Z,4.70
2017-12-08T12:47:11.960Z,4.90
2017-12-08T12:48:11.942Z,4.70
2017-12-08T12:49:11.917Z,5.10
2017-12-08T12:50:11.892Z,4.70
2017-12-08T12:51:11.882Z,5.00
2017-12-08T12:52:11.853Z,4.70
2017-12-08T12:53:11.824Z,4.50
2017-12-08T12:54:11.805Z,4.50
2017-12-08T12:55:11.783Z,4.40
2017-12-08T12:56:11.770Z,4.40
2017-12-08T12:57:11.745Z,4.50
2017-12-08T12:58:11.722Z,5.00
2017-12-08T12:59:11.690Z,4.30
2017-12-08T13:00:11.669Z,4.80
2017-12-08T13:01:11.651Z,4.30
2017-12-08T13:02:11.628Z,4.70
2017-12-08T13:03:11.602Z,4.70
2017-12-08T13:04:11.590Z,4.80
2017-12-08T13:05:11.559Z,4.30
2017-12-08T13:06:11.540Z,4.60
2017-12-08T13:07:11.516Z,4.00
2017-12-08T13:08:11.504Z,4.80
2017-12-08T13:09:11.471Z,4.40
2017-12-08T13:10:11.498Z,4.10
2017-12-08T13:11:11.468Z,4.70
2017-12-08T13:12:11.410Z,4.60
2017-12-08T13:13:11.388Z,4.30
2017-12-08T13:14:11.364Z,4.50